Time;durP1;ratioP1;P1;durP2;ratioP2;P2;SDS_P1;SDS_P2;PMS_P1;PMS_P2;Temp;Humidity;BMP_temperature;BMP_pressure;BME280_temperature;BME280_humidity;BME280_pressure;Samples;Min_cycle;Max_cycle;Signal;HPM_P1;HPM_P2
2022/08/10 00:00:54;;;;;;;3.90;3.60;;;20.80;1.00;;;;;;5069746;28;20202;-54
2022/08/10 00:03:20;;;;;;;5.83;4.33;;;20.70;1.00;;;;;;5089430;28;20186;-55
2022/08/10 00:05:45;;;;;;;4.53;4.13;;;20.70;1.00;;;;;;5089927;28;20194;-54
2022/08/10 00:08:11;;;;;;;4.70;3.73;;;20.70;1.00;;;;;;5088430;28;20240;-54
2022/08/10 00:10:37;;;;;;;5.63;4.40;;;20.60;1.00;;;;;;5090318;28;20205;-53
2022/08/10 00:13:03;;;;;;;5.43;3.70;;;20.50;1.00;;;;;;5086257;28;20184;-55
2022/08/10 00:15:29;;;;;;;5.00;4.30;;;20.40;1.00;;;;;;5091930;28;20584;-55
2022/08/10 00:17:54;;;;;;;7.03;4.47;;;20.40;1.00;;;;;;5087597;28;20223;-56
2022/08/10 00:20:20;;;;;;;4.13;3.73;;;20.30;1.00;;;;;;5085767;28;20191;-56
2022/08/10 00:22:45;;;;;;;5.70;4.30;;;20.40;1.00;;;;;;5088457;28;20218;-55
2022/08/10 00:25:11;;;;;;;4.57;3.87;;;20.30;1.00;;;;;;5088722;28;20182;-56
2022/08/10 00:27:37;;;;;;;4.33;3.50;;;20.30;1.00;;;;;;5089631;28;20210;-55
2022/08/10 00:30:04;;;;;;;4.87;3.90;;;20.30;1.00;;;;;;5088762;28;20190;-56
2022/08/10 00:32:29;;;;;;;4.40;4.00;;;20.30;1.00;;;;;;5068764;28;20201;-54
2022/08/10 00:34:55;;;;;;;4.30;3.73;;;20.30;1.00;;;;;;5088501;28;20848;-56
2022/08/10 00:37:20;;;;;;;6.40;3.87;;;20.20;1.00;;;;;;5086597;28;20312;-54
2022/08/10 00:39:46;;;;;;;5.90;4.20;;;20.10;1.00;;;;;;5088445;28;20236;-56
2022/08/10 00:42:13;;;;;;;6.53;4.53;;;20.00;1.00;;;;;;5089320;28;20544;-54
2022/08/10 00:44:41;;;;;;;4.93;4.43;;;20.00;1.00;;;;;;5089531;28;20182;-55
2022/08/10 00:47:08;;;;;;;4.80;4.10;;;20.00;1.00;;;;;;5087878;28;20986;-56
2022/08/10 00:49:34;;;;;;;4.43;3.90;;;20.00;1.00;;;;;;5085668;28;20452;-53
2022/08/10 00:52:01;;;;;;;4.40;4.00;;;19.90;1.00;;;;;;5085787;28;20815;-55
2022/08/10 00:54:27;;;;;;;6.67;4.20;;;19.90;1.00;;;;;;5088898;28;20440;-53
2022/08/10 00:56:53;;;;;;;4.63;4.23;;;19.80;1.00;;;;;;5088436;28;21201;-55
2022/08/10 00:59:19;;;;;;;4.70;4.17;;;19.80;1.00;;;;;;5086335;28;20432;-54
2022/08/10 01:01:44;;;;;;;4.00;3.60;;;19.80;1.00;;;;;;5085947;28;20218;-55
2022/08/10 01:04:10;;;;;;;8.73;4.00;;;19.80;1.00;;;;;;5087766;28;20194;-55
2022/08/10 01:07:10;;;;;;;6.07;4.07;;;19.80;1.00;;;;;;5087088;28;20190;-54
2022/08/10 01:09:58;;;;;;;6.67;4.23;;;19.80;1.00;;;;;;5087604;28;20277;-54
2022/08/10 01:12:33;;;;;;;5.00;4.23;;;19.70;1.00;;;;;;5088028;28;20473;-57
2022/08/10 01:15:20;;;;;;;4.60;4.20;;;19.60;1.00;;;;;;5086532;28;20455;-54
2022/08/10 01:17:59;;;;;;;5.57;4.00;;;19.60;1.00;;;;;;5087703;28;20444;-53
2022/08/10 01:20:33;;;;;;;3.93;3.50;;;19.60;1.00;;;;;;5084814;28;20459;-55
2022/08/10 01:23:27;;;;;;;5.73;4.43;;;19.70;1.00;;;;;;5086853;28;20533;-55
2022/08/10 01:26:15;;;;;;;4.63;4.23;;;19.70;1.00;;;;;;5086028;28;20515;-56
2022/08/10 01:29:07;;;;;;;4.37;3.97;;;19.50;1.00;;;;;;5088847;28;20768;-54
2022/08/10 01:31:40;;;;;;;5.37;4.87;;;19.50;1.00;;;;;;5084306;28;20555;-56
2022/08/10 01:34:12;;;;;;;4.93;4.43;;;19.50;1.00;;;;;;5087765;28;20440;-54
2022/08/10 01:36:44;;;;;;;7.90;4.40;;;19.40;1.00;;;;;;5089202;28;20814;-54
2022/08/10 01:39:23;;;;;;;4.87;4.10;;;19.30;1.00;;;;;;5086945;28;20444;-56
2022/08/10 01:41:55;;;;;;;5.93;4.23;;;19.20;1.00;;;;;;5089084;28;20437;-54
2022/08/10 01:44:38;;;;;;;4.50;3.97;;;19.10;1.00;;;;;;5085046;28;20483;-56
2022/08/10 01:50:28;;;;;;;6.13;4.10;;;19.10;1.00;;;;;;5085369;28;20451;-57
2022/08/10 01:53:01;;;;;;;4.90;4.50;;;19.10;1.00;;;;;;5085091;28;20525;-56
2022/08/10 01:55:29;;;;;;;4.90;4.43;;;19.00;1.00;;;;;;5086221;28;20449;-56
2022/08/10 01:57:57;;;;;;;5.50;4.17;;;19.00;1.00;;;;;;5085807;28;20436;-58
2022/08/10 02:00:24;;;;;;;4.87;4.57;;;18.90;1.00;;;;;;5086889;28;20456;-55
2022/08/10 02:02:52;;;;;;;4.93;4.43;;;18.90;1.00;;;;;;5087665;28;20447;-52
2022/08/10 02:05:20;;;;;;;4.53;4.23;;;18.90;1.00;;;;;;5086427;28;20456;-54
2022/08/10 02:07:47;;;;;;;4.80;4.40;;;18.80;1.00;;;;;;5088130;28;20570;-55
2022/08/10 02:10:15;;;;;;;5.40;4.90;;;18.80;1.00;;;;;;5069195;28;20477;-55
2022/08/10 02:12:43;;;;;;;4.70;4.27;;;18.80;1.00;;;;;;5087373;28;20616;-55
2022/08/10 02:15:19;;;;;;;4.73;4.33;;;18.80;1.00;;;;;;5087495;28;20447;-55
2022/08/10 02:17:54;;;;;;;5.23;4.73;;;18.70;1.00;;;;;;5088710;28;20447;-56
2022/08/10 02:20:23;;;;;;;6.00;4.37;;;18.70;1.00;;;;;;5081670;28;20953;-51
2022/08/10 02:22:57;;;;;;;4.83;4.50;;;18.70;1.00;;;;;;5085551;28;20826;-54
2022/08/10 02:25:24;;;;;;;6.53;4.97;;;18.70;1.00;;;;;;5085366;28;20448;-52
2022/08/10 02:27:51;;;;;;;5.30;4.27;;;18.70;1.00;;;;;;5088395;28;20451;-55
2022/08/10 02:30:17;;;;;;;5.37;4.97;;;18.60;1.00;;;;;;5090623;28;20437;-55
2022/08/10 02:32:45;;;;;;;5.40;4.67;;;18.50;1.00;;;;;;5091618;28;20444;-55
2022/08/10 02:35:13;;;;;;;5.00;4.50;;;18.50;1.00;;;;;;5089601;28;21528;-54
2022/08/10 02:37:42;;;;;;;5.90;4.53;;;18.50;1.00;;;;;;5091427;28;20502;-56
2022/08/10 02:40:09;;;;;;;5.83;5.33;;;18.40;1.00;;;;;;5088367;28;20443;-55
2022/08/10 02:43:02;;;;;;;4.83;4.43;;;18.40;1.00;;;;;;5091823;28;20509;-55
2022/08/10 02:45:51;;;;;;;4.60;4.10;;;18.40;1.00;;;;;;5082512;28;20444;-55
2022/08/10 02:48:39;;;;;;;5.67;4.67;;;18.30;1.00;;;;;;5088557;28;20519;-56
2022/08/10 02:51:19;;;;;;;5.77;5.27;;;18.30;1.00;;;;;;5091170;28;20559;-55
2022/08/10 02:54:00;;;;;;;5.13;4.60;;;18.20;1.00;;;;;;5088497;28;20440;-54
2022/08/10 02:56:35;;;;;;;6.50;5.37;;;18.20;1.00;;;;;;5089399;28;20436;-53
2022/08/10 02:59:19;;;;;;;4.93;4.53;;;18.20;1.00;;;;;;5090052;28;20501;-56
2022/08/10 03:01:48;;;;;;;6.07;5.23;;;18.20;1.00;;;;;;5088897;28;20462;-56
2022/08/10 03:04:22;;;;;;;5.40;4.97;;;18.20;1.00;;;;;;5090995;28;20447;-55
2022/08/10 03:06:59;;;;;;;4.90;4.57;;;18.20;1.00;;;;;;5091104;28;20482;-56
2022/08/10 03:09:27;;;;;;;6.43;4.93;;;18.30;1.00;;;;;;5090262;28;20962;-54
2022/08/10 03:11:55;;;;;;;8.73;5.37;;;18.20;1.00;;;;;;5091512;28;21113;-54
2022/08/10 03:14:22;;;;;;;5.07;4.67;;;18.20;1.00;;;;;;5091033;28;20463;-55
2022/08/10 03:16:49;;;;;;;5.50;5.10;;;18.10;1.00;;;;;;5089503;28;21001;-55
2022/08/10 03:19:17;;;;;;;6.07;5.47;;;18.10;1.00;;;;;;5089668;28;20785;-55
2022/08/10 03:21:44;;;;;;;7.70;5.70;;;18.10;1.00;;;;;;5091089;28;20767;-54
2022/08/10 03:24:10;;;;;;;5.33;4.93;;;18.10;1.00;;;;;;5088363;28;20451;-55
2022/08/10 03:26:37;;;;;;;6.00;5.53;;;18.10;1.00;;;;;;5090754;28;20865;-53
2022/08/10 03:29:04;;;;;;;5.73;5.23;;;18.10;1.00;;;;;;5087977;28;20440;-55
2022/08/10 03:31:31;;;;;;;5.27;4.77;;;18.10;1.00;;;;;;5089649;28;20461;-53
2022/08/10 03:33:58;;;;;;;6.03;5.53;;;18.00;1.00;;;;;;5092627;28;20994;-56
2022/08/10 03:36:24;;;;;;;5.67;5.17;;;18.00;1.00;;;;;;5087698;28;20561;-55
2022/08/10 03:38:52;;;;;;;5.40;5.00;;;18.10;1.00;;;;;;5089730;28;20536;-56
2022/08/10 03:41:32;;;;;;;7.07;6.47;;;18.00;1.00;;;;;;5088896;28;20652;-54
2022/08/10 03:44:00;;;;;;;6.30;5.70;;;18.00;1.00;;;;;;5086807;28;20471;-56
2022/08/10 03:46:28;;;;;;;6.03;5.53;;;17.90;1.00;;;;;;5087681;28;20509;-54
2022/08/10 03:48:56;;;;;;;5.57;5.07;;;18.00;1.00;;;;;;5083776;28;20437;-57
2022/08/10 03:51:25;;;;;;;7.70;5.93;;;17.90;1.00;;;;;;5089922;28;20509;-55
2022/08/10 03:53:51;;;;;;;7.00;5.60;;;18.00;1.00;;;;;;5086446;28;20443;-55
2022/08/10 03:56:18;;;;;;;5.47;5.07;;;18.00;1.00;;;;;;5088197;28;20459;-55
2022/08/10 03:58:44;;;;;;;8.77;5.80;;;18.10;1.00;;;;;;5089790;28;20448;-54
2022/08/10 04:01:10;;;;;;;7.47;5.20;;;18.20;1.00;;;;;;5089672;28;20791;-56
2022/08/10 04:03:36;;;;;;;5.70;5.20;;;18.10;1.00;;;;;;5087866;28;20575;-56
2022/08/10 04:06:02;;;;;;;6.07;5.50;;;18.10;1.00;;;;;;5088868;28;20531;-54
2022/08/10 04:08:27;;;;;;;6.40;5.33;;;18.10;1.00;;;;;;5087985;28;20206;-56
2022/08/10 04:10:53;;;;;;;6.40;5.80;;;18.10;1.00;;;;;;5090952;28;20511;-56
2022/08/10 04:13:19;;;;;;;6.90;6.20;;;18.20;1.00;;;;;;5087554;28;20202;-56
2022/08/10 04:15:44;;;;;;;13.60;6.43;;;18.20;1.00;;;;;;5072553;28;20206;-55
2022/08/10 04:18:10;;;;;;;6.33;5.37;;;18.20;1.00;;;;;;5089187;28;20186;-53
2022/08/10 04:20:46;;;;;;;8.80;6.00;;;18.20;1.00;;;;;;5089192;28;20252;-56
2022/08/10 04:23:17;;;;;;;8.20;5.77;;;18.30;1.00;;;;;;5088086;28;20273;-54
2022/08/10 04:25:43;;;;;;;8.97;5.50;;;18.30;1.00;;;;;;5089893;28;20986;-56
2022/08/10 04:28:10;;;;;;;7.17;5.90;;;18.40;1.00;;;;;;5089683;28;20478;-55
2022/08/10 04:30:37;;;;;;;7.40;5.70;;;18.40;1.00;;;;;;5089778;28;20790;-56
2022/08/10 04:33:05;;;;;;;6.30;5.57;;;18.40;1.00;;;;;;5088855;28;20445;-55
2022/08/10 04:35:33;;;;;;;8.17;6.30;;;18.40;1.00;;;;;;5088988;28;21004;-56
2022/08/10 04:38:02;;;;;;;10.63;5.93;;;18.40;1.00;;;;;;5087900;28;20452;-53
2022/08/10 04:40:27;;;;;;;7.37;5.60;;;18.60;1.00;;;;;;5088942;28;20437;-52
2022/08/10 04:42:53;;;;;;;7.70;6.13;;;18.70;1.00;;;;;;5088424;28;20984;-54
2022/08/10 04:45:19;;;;;;;9.63;5.83;;;18.60;1.00;;;;;;5089662;28;20451;-56
2022/08/10 04:47:45;;;;;;;6.70;6.10;;;18.60;1.00;;;;;;5088705;28;20182;-55
2022/08/10 04:50:10;;;;;;;6.00;5.50;;;18.50;1.00;;;;;;5088790;28;20185;-54
2022/08/10 04:52:36;;;;;;;7.07;6.37;;;18.60;1.00;;;;;;5088103;28;20702;-52
2022/08/10 04:55:02;;;;;;;9.73;5.60;;;18.60;1.00;;;;;;5089388;28;20206;-54
2022/08/10 04:57:28;;;;;;;6.83;6.03;;;18.60;1.00;;;;;;5089506;28;20186;-55
2022/08/10 04:59:53;;;;;;;8.47;6.57;;;18.60;1.00;;;;;;5086720;28;20807;-56
2022/08/10 05:02:19;;;;;;;9.43;5.40;;;18.70;1.00;;;;;;5084071;28;20269;-55
2022/08/10 05:04:44;;;;;;;7.17;6.57;;;18.70;1.00;;;;;;5069752;28;20547;-55
2022/08/10 05:07:14;;;;;;;6.70;5.97;;;18.70;1.00;;;;;;5085920;28;20684;-55
2022/08/10 05:09:41;;;;;;;8.40;7.50;;;18.70;1.00;;;;;;5088113;28;20185;-55
2022/08/10 05:12:07;;;;;;;9.93;6.70;;;18.80;1.00;;;;;;5086083;28;20638;-55
2022/08/10 05:14:33;;;;;;;12.80;6.73;;;18.90;1.00;;;;;;5088029;28;20448;-54
2022/08/10 05:16:59;;;;;;;6.83;5.93;;;19.10;1.00;;;;;;5089985;28;20452;-55
2022/08/10 05:19:25;;;;;;;6.70;6.10;;;19.20;1.00;;;;;;5090107;28;20624;-54
2022/08/10 05:21:51;;;;;;;6.77;6.00;;;19.10;1.00;;;;;;5084422;28;20187;-56
2022/08/10 05:24:17;;;;;;;6.07;5.57;;;;;;;;;;5084648;28;20970;-57
2022/08/10 05:26:43;;;;;;;8.63;7.00;;;19.30;1.00;;;;;;5087498;28;20449;-53
2022/08/10 05:29:08;;;;;;;7.67;6.30;;;19.30;1.00;;;;;;5071236;28;20501;-55
2022/08/10 05:31:34;;;;;;;7.20;6.50;;;19.30;1.00;;;;;;5087362;28;20206;-55
2022/08/10 05:34:00;;;;;;;7.50;6.60;;;19.30;1.00;;;;;;5088085;28;20179;-55
2022/08/10 05:36:26;;;;;;;10.20;7.47;;;19.30;1.00;;;;;;5089740;28;20293;-56
2022/08/10 05:38:53;;;;;;;8.97;6.20;;;19.40;1.00;;;;;;5087807;28;20608;-53
2022/08/10 05:41:19;;;;;;;6.27;5.70;;;19.50;1.00;;;;;;5088420;28;21021;-55
2022/08/10 05:43:45;;;;;;;10.93;7.00;;;19.50;1.00;;;;;;5088761;28;21002;-54
2022/08/10 05:46:11;;;;;;;7.67;6.87;;;19.50;1.00;;;;;;5089170;28;20441;-56
2022/08/10 05:48:38;;;;;;;6.33;5.70;;;19.70;1.00;;;;;;5088237;28;21025;-54
2022/08/10 05:51:10;;;;;;;6.50;5.90;;;19.70;1.00;;;;;;5089212;28;20202;-55
2022/08/10 05:53:37;;;;;;;10.20;6.80;;;19.80;1.00;;;;;;5087595;28;20444;-54
2022/08/10 05:56:30;;;;;;;8.50;6.17;;;19.90;1.00;;;;;;5089661;28;20440;-57
2022/08/10 05:58:56;;;;;;;7.07;6.37;;;20.00;1.00;;;;;;5051371;28;20449;-54
2022/08/10 06:01:24;;;;;;;7.43;6.77;;;20.10;1.00;;;;;;5082835;28;20445;-52
2022/08/10 06:03:52;;;;;;;21.50;9.87;;;20.30;1.00;;;;;;5088821;28;20191;-54
2022/08/10 06:06:20;;;;;;;12.27;7.50;;;20.30;1.00;;;;;;5093660;28;20436;-53
2022/08/10 06:08:48;;;;;;;7.20;6.60;;;20.40;1.00;;;;;;5092003;28;20508;-56
2022/08/10 06:11:21;;;;;;;6.93;5.90;;;20.50;1.00;;;;;;5091318;28;20464;-53
2022/08/10 06:16:33;;;;;;;9.57;7.20;;;20.70;1.00;;;;;;5092127;28;20577;-55
2022/08/10 06:19:00;;;;;;;9.73;6.77;;;20.70;1.00;;;;;;5091576;28;20444;-56
2022/08/10 06:21:27;;;;;;;6.40;5.80;;;20.60;1.00;;;;;;5092439;28;20455;-53
2022/08/10 06:23:55;;;;;;;7.47;6.77;;;20.60;1.00;;;;;;5072843;28;20502;-56
2022/08/10 06:26:20;;;;;;;10.67;6.60;;;20.70;1.00;;;;;;5092392;28;20444;-59
2022/08/10 06:28:59;;;;;;;6.80;6.10;;;20.80;1.00;;;;;;5091713;28;20785;-55
2022/08/10 06:31:26;;;;;;;9.43;6.17;;;21.00;1.00;;;;;;5091447;28;20221;-55
2022/08/10 06:33:53;;;;;;;7.80;6.17;;;21.20;1.00;;;;;;5091480;28;20437;-54
2022/08/10 06:36:21;;;;;;;8.50;6.00;;;21.40;1.00;;;;;;5092618;28;20456;-56
2022/08/10 06:38:49;;;;;;;7.97;6.60;;;21.50;1.00;;;;;;5089599;28;20460;-55
2022/08/10 06:41:34;;;;;;;9.07;6.43;;;21.70;1.00;;;;;;5092309;28;20921;-53
2022/08/10 06:44:08;;;;;;;9.40;6.70;;;21.70;1.00;;;;;;5091134;28;20455;-55
2022/08/10 06:46:37;;;;;;;6.97;5.63;;;22.00;1.00;;;;;;5089739;28;20464;-54
2022/08/10 06:49:06;;;;;;;9.83;6.77;;;21.80;1.00;;;;;;5090370;28;20898;-54
2022/08/10 06:51:35;;;;;;;10.87;6.50;;;21.90;1.00;;;;;;5091858;28;20463;-54
2022/08/10 06:54:04;;;;;;;6.23;5.63;;;22.10;1.00;;;;;;5089704;28;20444;-55
2022/08/10 06:56:34;;;;;;;6.60;5.67;;;22.30;1.00;;;;;;5090393;28;20514;-54
2022/08/10 06:59:24;;;;;;;6.17;5.57;;;22.60;1.00;;;;;;5091266;28;20447;-56
2022/08/10 07:01:57;;;;;;;6.27;5.67;;;22.80;1.00;;;;;;5090707;28;20487;-55
2022/08/10 07:04:34;;;;;;;11.53;6.40;;;23.10;1.00;;;;;;5089936;28;20440;-55
2022/08/10 07:07:04;;;;;;;8.87;5.93;;;23.30;1.00;;;;;;5091691;28;21018;-55
2022/08/10 07:09:31;;;;;;;6.50;5.90;;;23.40;1.00;;;;;;5090766;28;20452;-55
2022/08/10 07:11:58;;;;;;;9.23;6.17;;;23.30;1.00;;;;;;5091182;28;21026;-53
2022/08/10 07:14:25;;;;;;;7.03;5.53;;;23.40;1.00;;;;;;5092069;28;21937;-54
2022/08/10 07:16:52;;;;;;;8.20;5.83;;;23.60;1.00;;;;;;5091607;28;20467;-54
2022/08/10 07:19:20;;;;;;;6.87;6.20;;;23.80;1.00;;;;;;5090472;28;20521;-53
2022/08/10 07:21:46;;;;;;;6.93;5.70;;;23.60;1.00;;;;;;5091281;28;21052;-55
2022/08/10 07:24:14;;;;;;;6.80;5.57;;;23.40;1.00;;;;;;5091123;28;20535;-55
2022/08/10 07:26:47;;;;;;;6.50;5.93;;;23.60;1.00;;;;;;5091214;28;20544;-54
2022/08/10 07:29:15;;;;;;;6.20;5.70;;;23.70;1.00;;;;;;5091354;28;20445;-53
2022/08/10 07:31:42;;;;;;;6.43;5.50;;;24.00;1.00;;;;;;5091997;28;20860;-57
2022/08/10 07:34:08;;;;;;;6.30;5.50;;;24.10;1.00;;;;;;5073430;28;20479;-56
2022/08/10 07:36:35;;;;;;;6.07;5.47;;;24.30;1.00;;;;;;5091670;28;20593;-54
2022/08/10 07:39:03;;;;;;;6.90;5.70;;;24.50;1.00;;;;;;5091412;28;20428;-54
2022/08/10 07:41:31;;;;;;;6.63;5.73;;;24.70;1.00;;;;;;5091588;28;20461;-52
2022/08/10 07:44:01;;;;;;;5.80;5.27;;;24.80;1.00;;;;;;5091759;28;20498;-56
2022/08/10 07:46:29;;;;;;;6.00;5.43;;;25.00;1.00;;;;;;5091637;28;20551;-56
2022/08/10 07:49:19;;;;;;;7.67;5.50;;;25.20;1.00;;;;;;5091555;28;20437;-56
2022/08/10 07:51:49;;;;;;;6.80;5.63;;;25.40;1.00;;;;;;5091324;28;20487;-55
2022/08/10 07:54:16;;;;;;;6.57;5.20;;;25.40;1.00;;;;;;5073202;28;20938;-53
2022/08/10 07:56:46;;;;;;;7.97;4.97;;;25.60;1.00;;;;;;5091121;28;20452;-54
2022/08/10 07:59:17;;;;;;;9.23;5.97;;;25.70;1.00;;;;;;5091351;28;20435;-56
2022/08/10 08:01:49;;;;;;;7.30;4.70;;;25.70;1.00;;;;;;5089690;28;20489;-54
2022/08/10 08:04:18;;;;;;;6.50;5.23;;;25.60;1.00;;;;;;5090950;28;20448;-55
2022/08/10 08:06:45;;;;;;;5.30;4.80;;;25.70;1.00;;;;;;5091015;28;20429;-56
2022/08/10 08:09:11;;;;;;;7.77;5.07;;;25.80;1.00;;;;;;5091307;28;20441;-55
2022/08/10 08:11:40;;;;;;;5.60;4.47;;;25.60;1.00;;;;;;5090072;28;20461;-56
2022/08/10 08:14:07;;;;;;;4.30;4.00;;;25.70;1.00;;;;;;5091290;28;20183;-56
2022/08/10 08:16:36;;;;;;;5.00;4.60;;;25.70;1.00;;;;;;5072979;28;20942;-56
2022/08/10 08:19:02;;;;;;;5.77;4.20;;;26.20;1.00;;;;;;5091166;28;20425;-55
2022/08/10 08:21:29;;;;;;;6.60;3.53;;;26.20;1.00;;;;;;5088493;28;20441;-57
2022/08/10 08:23:56;;;;;;;4.63;4.23;;;26.30;1.00;;;;;;5091025;28;20917;-55
2022/08/10 08:26:23;;;;;;;5.13;3.80;;;25.90;1.00;;;;;;5090245;28;20445;-53
2022/08/10 08:28:49;;;;;;;6.90;5.17;;;25.90;1.00;;;;;;5090762;28;20463;-55
2022/08/10 08:31:25;;;;;;;6.80;5.37;;;26.10;1.00;;;;;;5091280;28;21117;-54
2022/08/10 08:33:53;;;;;;;7.53;4.67;;;26.60;1.00;;;;;;5090571;28;20468;-54
2022/08/10 08:36:20;;;;;;;10.67;4.13;;;26.90;1.00;;;;;;5090520;28;20464;-54
2022/08/10 08:38:47;;;;;;;5.03;4.43;;;27.30;1.00;;;;;;5089863;28;20479;-55
2022/08/10 08:41:58;;;;;;;5.20;4.40;;;27.70;1.00;;;;;;5090884;28;20440;-57
2022/08/10 08:44:57;;;;;;;6.23;4.57;;;27.80;1.00;;;;;;5048280;28;20436;-57
2022/08/10 08:47:48;;;;;;;7.03;5.03;;;27.70;1.00;;;;;;5090608;28;20424;-52
2022/08/10 08:50:26;;;;;;;4.93;4.37;;;27.70;1.00;;;;;;5090500;28;20433;-53
2022/08/10 08:53:37;;;;;;;4.73;3.90;;;27.60;1.00;;;;;;5089869;28;20445;-55
2022/08/10 08:56:29;;;;;;;5.33;4.73;;;27.80;1.00;;;;;;5059029;28;20531;-54
2022/08/10 08:59:04;;;;;;;4.47;4.17;;;28.10;1.00;;;;;;5089429;28;20433;-54
2022/08/10 09:02:01;;;;;;;4.20;3.80;;;28.30;1.00;;;;;;5090657;28;20462;-56
2022/08/10 09:04:49;;;;;;;8.23;4.43;;;28.30;1.00;;;;;;5090672;28;20451;-56
2022/08/10 09:07:42;;;;;;;8.03;4.13;;;28.50;1.00;;;;;;5072163;28;20439;-55
2022/08/10 09:10:13;;;;;;;8.23;4.50;;;28.60;1.00;;;;;;5090018;28;20536;-53
2022/08/10 09:13:05;;;;;;;5.50;4.50;;;28.60;1.00;;;;;;5090153;28;20480;-56
2022/08/10 09:16:01;;;;;;;5.93;4.13;;;28.70;1.00;;;;;;5090385;28;20440;-57
2022/08/10 09:18:41;;;;;;;4.37;3.53;;;28.70;1.00;;;;;;5090301;28;20433;-57
2022/08/10 09:21:28;;;;;;;9.00;5.20;;;28.40;1.00;;;;;;5072016;28;20407;-53
2022/08/10 09:24:20;;;;;;;5.17;4.50;;;28.20;1.00;;;;;;5090017;28;20429;-54
2022/08/10 09:26:49;;;;;;;4.70;3.60;;;28.60;1.00;;;;;;5089422;28;20446;-56
2022/08/10 09:29:24;;;;;;;5.13;3.63;;;28.50;1.00;;;;;;5089181;28;20490;-56
2022/08/10 09:32:12;;;;;;;4.80;3.17;;;28.10;1.00;;;;;;5090151;28;20555;-54
2022/08/10 09:35:05;;;;;;;4.90;4.00;;;28.10;1.00;;;;;;5090346;28;20426;-56
2022/08/10 09:38:01;;;;;;;4.90;3.57;;;28.40;1.00;;;;;;5089813;28;20458;-55
2022/08/10 09:40:53;;;;;;;4.90;4.00;;;28.40;1.00;;;;;;5093823;28;20489;-55
2022/08/10 09:43:50;;;;;;;6.27;4.30;;;28.80;1.00;;;;;;5093989;28;20425;-54
2022/08/10 09:46:33;;;;;;;5.23;4.83;;;29.30;1.00;;;;;;5094135;28;20429;-56
2022/08/10 09:49:11;;;;;;;5.67;3.90;;;30.10;1.00;;;;;;5094079;28;20425;-54
2022/08/10 09:52:06;;;;;;;4.50;3.33;;;30.20;1.00;;;;;;5093879;28;20537;-55
2022/08/10 09:54:41;;;;;;;4.63;3.33;;;30.10;1.00;;;;;;5091859;28;21120;-56
2022/08/10 09:57:16;;;;;;;8.23;3.90;;;29.80;1.00;;;;;;5074099;28;20437;-55
2022/08/10 09:59:49;;;;;;;4.23;3.10;;;30.00;1.00;;;;;;5093928;28;20487;-56
2022/08/10 10:02:37;;;;;;;3.50;3.20;;;29.90;1.00;;;;;;5093790;28;20433;-55
2022/08/10 10:05:31;;;;;;;4.77;3.10;;;30.00;1.00;;;;;;5091367;28;20891;-55
2022/08/10 10:08:23;;;;;;;7.07;3.40;;;30.10;1.00;;;;;;5094008;28;20487;-54
2022/08/10 10:10:49;;;;;;;6.90;3.57;;;29.60;1.00;;;;;;5093554;28;20465;-55
2022/08/10 10:13:45;;;;;;;7.07;3.60;;;29.60;1.00;;;;;;5093739;28;20452;-55
2022/08/10 10:16:40;;;;;;;4.57;3.23;;;29.80;1.00;;;;;;5045182;28;20186;-52
2022/08/10 10:19:34;;;;;;;3.70;3.40;;;29.80;1.00;;;;;;5093318;28;20499;-55
2022/08/10 10:22:47;;;;;;;3.83;3.47;;;29.70;1.00;;;;;;5093654;28;20430;-55
2022/08/10 10:25:36;;;;;;;4.03;3.30;;;30.30;1.00;;;;;;4990922;28;20460;-54
2022/08/10 10:28:29;;;;;;;6.40;4.00;;;30.30;1.00;;;;;;4991298;28;20994;-56
2022/08/10 10:31:07;;;;;;;4.43;3.77;;;30.10;1.00;;;;;;5072697;28;20476;-55
2022/08/10 10:34:00;;;;;;;7.00;3.90;;;30.50;1.00;;;;;;5088977;28;20942;-57
2022/08/10 10:36:26;;;;;;;3.63;3.33;;;30.30;1.00;;;;;;5092601;28;20500;-56
2022/08/10 10:38:55;;;;;;;6.77;3.47;;;30.20;1.00;;;;;;5092748;28;20930;-56
2022/08/10 10:41:34;;;;;;;3.93;2.93;;;30.10;1.00;;;;;;5093026;28;21099;-52
2022/08/10 10:44:12;;;;;;;3.50;3.20;;;30.30;1.00;;;;;;5092732;28;20440;-54
2022/08/10 10:46:52;;;;;;;5.13;2.83;;;30.40;1.00;;;;;;5092914;28;20479;-55
2022/08/10 10:49:41;;;;;;;4.50;3.90;;;31.00;1.00;;;;;;5092455;28;20475;-56
2022/08/10 10:52:26;;;;;;;4.83;3.30;;;30.60;1.00;;;;;;5092763;28;20452;-55
2022/08/10 10:55:11;;;;;;;4.20;3.27;;;30.70;1.00;;;;;;5092390;28;20432;-55
2022/08/10 10:57:53;;;;;;;4.30;3.90;;;30.50;1.00;;;;;;5092548;28;20443;-53
2022/08/10 11:00:24;;;;;;;4.37;3.97;;;30.50;1.00;;;;;;5092708;28;20516;-54
2022/08/10 11:03:20;;;;;;;7.30;3.53;;;30.60;1.00;;;;;;5092214;28;20992;-54
2022/08/10 11:05:53;;;;;;;6.63;3.37;;;30.50;1.00;;;;;;5092523;28;21527;-55
2022/08/10 11:08:24;;;;;;;4.03;3.53;;;30.50;1.00;;;;;;5092701;28;20466;-54
2022/08/10 11:10:54;;;;;;;3.80;3.40;;;30.40;1.00;;;;;;5073766;28;20433;-56
2022/08/10 11:13:33;;;;;;;4.33;3.93;;;30.50;1.00;;;;;;5092283;28;20440;-53
2022/08/10 11:16:36;;;;;;;5.43;3.70;;;30.60;1.00;;;;;;5092506;28;20536;-56
2022/08/10 11:19:29;;;;;;;4.33;3.70;;;30.40;1.00;;;;;;5092233;28;20532;-56
2022/08/10 11:22:27;;;;;;;4.33;3.57;;;30.50;1.00;;;;;;5092135;28;20441;-52
2022/08/10 11:24:55;;;;;;;4.40;4.00;;;30.60;1.00;;;;;;5092399;28;20466;-53
2022/08/10 11:27:39;;;;;;;4.27;3.80;;;30.50;1.00;;;;;;5090921;28;20429;-55
2022/08/10 11:30:11;;;;;;;6.10;3.73;;;30.10;1.00;;;;;;5091144;28;20472;-55
2022/08/10 11:32:51;;;;;;;8.90;4.13;;;29.70;1.00;;;;;;5092433;28;20465;-55
2022/08/10 11:35:21;;;;;;;5.37;4.30;;;29.70;1.00;;;;;;5091740;28;20938;-57
2022/08/10 11:38:07;;;;;;;4.47;3.97;;;29.80;1.00;;;;;;5091582;28;20469;-56
2022/08/10 11:41:01;;;;;;;5.23;3.70;;;30.10;1.00;;;;;;5090463;28;20839;-57
2022/08/10 11:43:28;;;;;;;5.13;3.80;;;30.30;1.00;;;;;;5092206;28;20779;-54
2022/08/10 11:46:27;;;;;;;5.10;4.07;;;30.30;1.00;;;;;;5092290;28;20425;-55
2022/08/10 11:49:05;;;;;;;3.73;3.43;;;30.50;1.00;;;;;;5092230;28;20430;-54
2022/08/10 11:51:36;;;;;;;7.60;4.10;;;30.90;1.00;;;;;;5091967;28;20457;-53
2022/08/10 11:54:09;;;;;;;3.20;3.00;;;31.00;1.00;;;;;;5087879;28;20438;-54
2022/08/10 11:56:46;;;;;;;5.00;3.70;;;31.10;1.00;;;;;;5091520;28;20441;-54
2022/08/10 12:02:00;;;;;;;6.43;3.57;;;31.60;1.00;;;;;;5088285;28;20436;-52
2022/08/10 12:04:27;;;;;;;4.13;3.53;;;31.90;1.00;;;;;;5091185;28;20491;-53
2022/08/10 12:06:53;;;;;;;9.47;3.70;;;32.00;1.00;;;;;;5091436;28;20444;-53
2022/08/10 12:09:21;;;;;;;5.23;3.30;;;32.10;1.00;;;;;;5091154;28;20454;-54
2022/08/10 12:11:49;;;;;;;4.10;3.80;;;32.40;1.00;;;;;;5091348;28;20464;-53
2022/08/10 12:14:24;;;;;;;7.33;3.27;;;32.50;1.00;;;;;;5091301;28;20446;-53
2022/08/10 12:17:07;;;;;;;4.23;3.70;;;31.70;1.00;;;;;;5091416;28;20440;-56
2022/08/10 12:20:06;;;;;;;6.20;3.20;;;31.60;1.00;;;;;;5091116;28;20467;-54
2022/08/10 12:22:46;;;;;;;4.40;3.70;;;31.60;1.00;;;;;;5091032;28;20920;-56
2022/08/10 12:25:20;;;;;;;4.10;3.30;;;31.20;1.00;;;;;;5090969;28;20503;-54
2022/08/10 12:27:50;;;;;;;4.00;3.20;;;31.00;1.00;;;;;;5091230;28;20870;-54
2022/08/10 12:30:20;;;;;;;4.30;3.63;;;30.70;1.00;;;;;;5091002;28;20460;-57
2022/08/10 12:33:18;;;;;;;5.87;3.70;;;30.60;1.00;;;;;;5088713;28;20880;-54
2022/08/10 12:36:24;;;;;;;4.40;4.00;;;30.30;1.00;;;;;;5090526;28;20471;-54
2022/08/10 12:39:10;;;;;;;6.33;4.07;;;29.80;1.00;;;;;;5090831;28;20441;-53
2022/08/10 12:41:44;;;;;;;5.50;4.50;;;29.60;1.00;;;;;;5090456;28;20443;-53
2022/08/10 12:44:20;;;;;;;4.10;3.77;;;29.70;1.00;;;;;;5090699;28;20518;-54
2022/08/10 12:47:24;;;;;;;4.40;3.37;;;29.60;1.00;;;;;;5090729;28;20441;-54
2022/08/10 12:50:06;;;;;;;7.37;4.20;;;29.40;1.00;;;;;;5089667;28;20410;-55
2022/08/10 12:53:16;;;;;;;3.50;3.30;;;29.30;1.00;;;;;;5090334;28;20472;-53
2022/08/10 12:55:42;;;;;;;4.77;4.17;;;29.30;1.00;;;;;;5062423;28;20440;-55
2022/08/10 12:58:12;;;;;;;4.57;4.13;;;29.10;1.00;;;;;;5090489;28;20848;-54
2022/08/10 13:00:38;;;;;;;4.07;3.67;;;29.10;1.00;;;;;;5090317;28;20439;-56
2022/08/10 13:03:05;;;;;;;6.13;4.17;;;29.00;1.00;;;;;;5090611;28;20449;-54
2022/08/10 13:05:32;;;;;;;5.10;3.87;;;28.90;1.00;;;;;;5090703;28;20449;-53
2022/08/10 13:10:56;;;;;;;4.40;3.83;;;29.00;1.00;;;;;;5090353;28;20490;-54
2022/08/10 13:13:31;;;;;;;6.03;4.20;;;29.10;1.00;;;;;;5090113;28;20498;-55
2022/08/10 13:15:58;;;;;;;4.90;3.90;;;29.20;1.00;;;;;;5090380;28;20433;-55
2022/08/10 13:18:28;;;;;;;6.20;4.40;;;29.30;1.00;;;;;;5088456;28;20523;-54
2022/08/10 13:20:59;;;;;;;4.43;4.13;;;29.30;1.00;;;;;;5090021;28;20444;-54
2022/08/10 13:23:27;;;;;;;4.33;3.93;;;29.60;1.00;;;;;;5090638;28;20946;-55
2022/08/10 13:25:56;;;;;;;4.07;3.70;;;29.80;1.00;;;;;;5090116;28;20425;-55
2022/08/10 13:28:33;;;;;;;4.03;3.43;;;29.80;1.00;;;;;;5089034;28;20524;-53
2022/08/10 13:31:04;;;;;;;5.13;3.67;;;29.70;1.00;;;;;;5089023;28;20530;-54
2022/08/10 13:33:32;;;;;;;3.70;3.30;;;29.60;1.00;;;;;;5087225;28;20785;-55
2022/08/10 13:36:01;;;;;;;4.80;3.90;;;29.60;1.00;;;;;;5088775;28;20536;-53
2022/08/10 13:38:28;;;;;;;7.43;3.90;;;29.90;1.00;;;;;;5090081;28;20796;-54
2022/08/10 13:40:56;;;;;;;7.50;4.10;;;30.20;1.00;;;;;;5090009;28;20403;-55
2022/08/10 13:43:24;;;;;;;5.03;3.77;;;30.50;1.00;;;;;;5090054;28;20486;-55